Time;durP1;ratioP1;P1;durP2;ratioP2;P2;SDS_P1;SDS_P2;PMS_P1;PMS_P2;Temp;Humidity;BMP_temperature;BMP_pressure;BME280_temperature;BME280_humidity;BME280_pressure;Samples;Min_cycle;Max_cycle;Signal;HPM_P1;HPM_P2
2024/01/04 00:02:13;;;;;;;0.00;0.00;;;5.50;99.90;;;;;;5083111;28;20470;-87
2024/01/04 00:04:40;;;;;;;0.00;0.00;;;5.40;99.90;;;;;;5087625;28;20093;-87
2024/01/04 00:07:06;;;;;;;0.30;0.30;;;5.40;82.30;;;;;;5065901;28;20049;-87
2024/01/04 00:09:31;;;;;;;0.00;0.00;;;5.40;99.90;;;;;;5061020;28;20413;-87
2024/01/04 00:11:57;;;;;;;0.00;0.00;;;5.40;99.90;;;;;;5090651;28;20488;-87
2024/01/04 00:14:23;;;;;;;0.00;0.00;;;5.40;99.90;;;;;;5052280;28;20040;-87
2024/01/04 00:16:48;;;;;;;0.20;0.20;;;5.40;99.90;;;;;;5091203;28;20031;-87
2024/01/04 00:19:14;;;;;;;0.00;0.00;;;5.40;99.90;;;;;;5107161;28;20097;-87
2024/01/04 00:21:40;;;;;;;0.00;0.00;;;5.40;99.90;;;;;;5078596;28;20049;-87
2024/01/04 00:24:06;;;;;;;0.00;0.00;;;5.40;99.90;;;;;;5079392;28;20489;-87
2024/01/04 00:26:32;;;;;;;0.00;0.00;;;5.40;99.90;;;;;;5102993;28;20054;-86
2024/01/04 00:28:59;;;;;;;0.00;0.00;;;5.40;16.80;;;;;;5074507;28;20043;-87
2024/01/04 00:31:24;;;;;;;0.30;0.25;;;5.40;37.00;;;;;;5065201;28;20724;-87
2024/01/04 00:33:50;;;;;;;0.00;0.00;;;5.40;8.10;;;;;;5065160;28;20045;-86
2024/01/04 00:36:16;;;;;;;0.00;0.00;;;5.40;99.90;;;;;;5031620;28;20053;-87
2024/01/04 00:38:41;;;;;;;0.00;0.00;;;5.30;1.00;;;;;;5100297;28;20043;-87
2024/01/04 00:41:07;;;;;;;0.00;0.00;;;5.30;1.00;;;;;;5094151;28;20044;-87
2024/01/04 00:43:33;;;;;;;0.00;0.00;;;5.30;99.90;;;;;;5091738;28;20039;-86
2024/01/04 00:45:59;;;;;;;0.00;0.00;;;5.30;99.90;;;;;;5086960;28;20047;-87
2024/01/04 00:48:24;;;;;;;0.00;0.00;;;5.30;99.90;;;;;;5099604;28;20052;-87
2024/01/04 00:50:50;;;;;;;0.10;0.10;;;5.30;99.90;;;;;;5088719;28;20051;-87
2024/01/04 00:53:16;;;;;;;0.20;0.20;;;5.20;8.90;;;;;;5093648;28;20050;-87
2024/01/04 00:55:41;;;;;;;0.00;0.00;;;5.20;99.90;;;;;;5097040;28;20122;-87
2024/01/04 00:58:07;;;;;;;0.32;0.30;;;5.20;1.00;;;;;;5096234;28;20096;-87
2024/01/04 01:00:33;;;;;;;0.00;0.00;;;5.20;98.00;;;;;;5098740;28;20054;-87
2024/01/04 01:02:59;;;;;;;0.00;0.00;;;5.20;99.90;;;;;;5096454;28;20123;-87
2024/01/04 01:05:25;;;;;;;0.00;0.00;;;5.20;99.90;;;;;;5097261;28;20043;-87
2024/01/04 01:07:50;;;;;;;0.00;0.00;;;5.20;99.90;;;;;;5090483;28;20093;-87
2024/01/04 01:10:16;;;;;;;0.00;0.00;;;5.20;99.90;;;;;;5085497;28;20074;-87
2024/01/04 01:12:42;;;;;;;0.00;0.00;;;5.20;99.90;;;;;;5057754;28;20094;-87
2024/01/04 01:15:08;;;;;;;0.00;0.00;;;5.20;99.90;;;;;;5079416;28;20048;-87
2024/01/04 01:17:33;;;;;;;0.00;0.00;;;5.20;1.00;;;;;;5105154;28;20044;-87
2024/01/04 01:19:59;;;;;;;0.00;0.00;;;5.20;15.90;;;;;;5091035;28;20051;-86
2024/01/04 01:22:26;;;;;;;0.00;0.00;;;5.20;1.00;;;;;;5066109;28;20477;-87
2024/01/04 01:24:52;;;;;;;0.00;0.00;;;5.10;99.90;;;;;;5084270;28;20051;-87
2024/01/04 01:27:18;;;;;;;0.00;0.00;;;5.10;77.30;;;;;;5084843;28;20048;-86
2024/01/04 01:29:44;;;;;;;0.00;0.00;;;5.00;99.90;;;;;;5093257;28;20048;-87
2024/01/04 01:32:10;;;;;;;0.00;0.00;;;5.10;99.90;;;;;;5094190;28;20047;-87
2024/01/04 01:34:35;;;;;;;0.10;0.10;;;5.10;1.00;;;;;;5088082;28;20051;-87
2024/01/04 01:37:01;;;;;;;0.00;0.00;;;5.00;99.90;;;;;;5087016;28;20513;-87
2024/01/04 01:39:27;;;;;;;0.00;0.00;;;5.00;99.90;;;;;;5078222;28;20101;-87
2024/01/04 01:41:52;;;;;;;0.00;0.00;;;4.90;99.90;;;;;;5084147;28;20040;-87
2024/01/04 01:44:18;;;;;;;0.00;0.00;;;4.90;99.90;;;;;;5066538;28;20087;-87
2024/01/04 01:46:45;;;;;;;0.10;0.10;;;4.90;94.30;;;;;;5101244;28;20039;-87
2024/01/04 01:49:11;;;;;;;0.00;0.00;;;4.90;1.00;;;;;;5105422;28;20460;-87
2024/01/04 01:51:37;;;;;;;0.00;0.00;;;4.90;1.00;;;;;;5079605;28;20071;-87
2024/01/04 01:54:06;;;;;;;0.00;0.00;;;4.90;1.00;;;;;;5092671;28;20582;-87
2024/01/04 01:56:32;;;;;;;0.00;0.00;;;4.90;78.30;;;;;;5089434;28;20047;-87
2024/01/04 01:59:01;;;;;;;0.00;0.00;;;4.90;99.90;;;;;;5096078;28;20509;-87
2024/01/04 02:01:27;;;;;;;0.00;0.00;;;4.90;99.90;;;;;;5047668;28;20224;-87
2024/01/04 02:03:54;;;;;;;0.00;0.00;;;4.90;99.90;;;;;;5079311;28;20052;-87
2024/01/04 02:06:20;;;;;;;2.10;0.25;;;5.00;72.20;;;;;;5065520;28;20128;-87
2024/01/04 02:08:49;;;;;;;0.13;0.13;;;5.00;1.00;;;;;;5062990;28;20123;-87
2024/01/04 02:11:16;;;;;;;0.00;0.00;;;5.00;99.90;;;;;;5072278;28;20036;-87
2024/01/04 02:13:42;;;;;;;0.17;0.10;;;5.00;1.00;;;;;;5062489;28;20056;-87
2024/01/04 02:16:07;;;;;;;0.13;0.10;;;5.00;1.00;;;;;;5072083;28;20600;-87
2024/01/04 02:18:33;;;;;;;0.00;0.00;;;4.90;1.00;;;;;;5063674;28;20044;-87
2024/01/04 02:20:59;;;;;;;0.00;0.00;;;5.00;99.90;;;;;;5063005;28;20119;-86
2024/01/04 02:23:24;;;;;;;0.52;0.47;;;5.00;99.90;;;;;;5062078;28;20131;-87
2024/01/04 02:25:50;;;;;;;0.00;0.00;;;5.00;99.90;;;;;;5075659;28;20044;-86
2024/01/04 02:28:16;;;;;;;0.00;0.00;;;4.90;99.90;;;;;;5081846;28;20102;-86
2024/01/04 02:30:41;;;;;;;0.10;0.10;;;4.90;99.90;;;;;;5073420;28;20901;-86
2024/01/04 02:33:07;;;;;;;2.17;0.57;;;4.80;99.90;;;;;;5074755;28;20050;-87
2024/01/04 02:35:33;;;;;;;0.00;0.00;;;4.70;99.90;;;;;;5080597;28;20094;-87
2024/01/04 02:37:58;;;;;;;0.00;0.00;;;4.60;99.90;;;;;;5071755;28;20044;-87
2024/01/04 02:40:24;;;;;;;0.30;0.20;;;4.50;99.90;;;;;;5071956;28;20159;-87
2024/01/04 02:42:50;;;;;;;0.00;0.00;;;4.50;99.90;;;;;;5058332;28;20718;-86
2024/01/04 02:45:15;;;;;;;0.88;0.47;;;4.60;99.90;;;;;;5068752;28;20043;-87
2024/01/04 02:47:42;;;;;;;0.32;0.32;;;4.50;99.90;;;;;;5044983;28;20047;-86
2024/01/04 02:50:08;;;;;;;0.00;0.00;;;4.40;1.00;;;;;;5061245;28;20052;-86
2024/01/04 02:52:34;;;;;;;0.10;0.10;;;4.50;99.90;;;;;;5071174;28;20056;-87
2024/01/04 02:55:00;;;;;;;0.00;0.00;;;4.40;1.00;;;;;;5062099;28;20057;-87
2024/01/04 02:57:25;;;;;;;0.00;0.00;;;4.30;1.00;;;;;;5083005;28;20059;-87
2024/01/04 02:59:51;;;;;;;0.10;0.10;;;4.10;99.90;;;;;;5074477;28;20413;-86
2024/01/04 03:02:16;;;;;;;0.00;0.00;;;4.00;99.90;;;;;;5084160;28;20048;-87
2024/01/04 03:04:43;;;;;;;0.10;0.10;;;4.00;99.90;;;;;;5064725;28;20054;-86
2024/01/04 03:07:08;;;;;;;0.73;0.55;;;3.90;1.00;;;;;;5099762;28;20047;-87
2024/01/04 03:09:34;;;;;;;0.00;0.00;;;4.00;99.90;;;;;;5091952;28;20050;-86
2024/01/04 03:12:00;;;;;;;0.00;0.00;;;4.00;99.90;;;;;;5080306;28;20479;-87
2024/01/04 03:14:25;;;;;;;0.00;0.00;;;4.00;99.90;;;;;;5100045;28;20528;-87
2024/01/04 03:16:51;;;;;;;0.00;0.00;;;3.90;99.90;;;;;;5089580;28;20048;-86
2024/01/04 03:19:17;;;;;;;0.13;0.10;;;3.70;99.90;;;;;;5098873;28;20043;-86
2024/01/04 03:21:45;;;;;;;0.00;0.00;;;3.70;1.00;;;;;;5086795;28;20063;-86
2024/01/04 03:24:11;;;;;;;0.00;0.00;;;3.60;94.50;;;;;;5092645;28;20048;-86
2024/01/04 03:26:37;;;;;;;0.00;0.00;;;3.60;99.90;;;;;;5069288;28;20063;-87
2024/01/04 03:29:02;;;;;;;1.35;0.75;;;3.60;99.90;;;;;;5092513;28;20518;-86
2024/01/04 03:31:29;;;;;;;0.13;0.13;;;3.70;99.90;;;;;;5084610;28;20056;-86
2024/01/04 03:33:54;;;;;;;0.00;0.00;;;3.80;43.40;;;;;;5091259;28;20052;-86
2024/01/04 03:36:20;;;;;;;0.00;0.00;;;3.90;99.90;;;;;;5092279;28;20054;-87
2024/01/04 03:38:45;;;;;;;0.00;0.00;;;3.80;99.90;;;;;;5063881;28;20662;-87
2024/01/04 03:41:11;;;;;;;0.00;0.00;;;3.80;1.00;;;;;;5082526;28;20397;-86
2024/01/04 03:43:37;;;;;;;0.00;0.00;;;3.60;99.90;;;;;;5081733;28;20386;-86
2024/01/04 03:46:06;;;;;;;0.00;0.00;;;3.50;99.90;;;;;;5097537;28;20467;-87
2024/01/04 03:48:32;;;;;;;0.00;0.00;;;3.50;1.00;;;;;;5064868;28;20052;-87
2024/01/04 03:50:58;;;;;;;0.00;0.00;;;3.50;30.90;;;;;;5093786;28;20439;-87
2024/01/04 03:53:23;;;;;;;0.00;0.00;;;3.60;99.90;;;;;;5088007;28;20069;-86
2024/01/04 03:55:49;;;;;;;0.00;0.00;;;3.80;1.00;;;;;;5067040;28;20506;-87
2024/01/04 03:58:15;;;;;;;0.00;0.00;;;3.80;14.70;;;;;;5103034;28;20048;-87
2024/01/04 04:00:41;;;;;;;0.00;0.00;;;3.80;14.50;;;;;;5093695;28;20473;-86
2024/01/04 04:03:06;;;;;;;0.00;0.00;;;3.80;99.90;;;;;;5077646;28;20086;-87
2024/01/04 04:05:33;;;;;;;0.00;0.00;;;3.80;1.00;;;;;;5094022;28;20058;-87
2024/01/04 04:07:58;;;;;;;0.00;0.00;;;3.80;81.70;;;;;;5101561;28;20040;-86
2024/01/04 04:10:24;;;;;;;0.00;0.00;;;3.70;1.00;;;;;;5090182;28;20110;-86
2024/01/04 04:12:50;;;;;;;0.00;0.00;;;3.60;99.90;;;;;;5080729;28;20098;-86
2024/01/04 04:15:16;;;;;;;0.00;0.00;;;3.50;99.90;;;;;;5066287;28;20047;-86
2024/01/04 04:17:42;;;;;;;0.00;0.00;;;3.30;99.90;;;;;;5092958;28;20165;-86
2024/01/04 04:20:08;;;;;;;0.00;0.00;;;3.30;1.00;;;;;;5092287;28;20698;-86
2024/01/04 04:22:34;;;;;;;0.00;0.00;;;3.30;22.70;;;;;;5082008;28;20502;-86
2024/01/04 04:24:59;;;;;;;0.00;0.00;;;3.30;18.60;;;;;;5087457;28;20051;-86
2024/01/04 04:27:25;;;;;;;0.00;0.00;;;3.20;1.00;;;;;;5092860;28;20094;-86
2024/01/04 04:29:51;;;;;;;0.00;0.00;;;3.10;99.90;;;;;;5093801;28;20123;-86
2024/01/04 04:32:17;;;;;;;0.47;0.45;;;3.00;99.90;;;;;;5074308;28;20048;-86
2024/01/04 04:34:43;;;;;;;0.00;0.00;;;2.90;99.90;;;;;;5089731;28;20044;-86
2024/01/04 04:37:08;;;;;;;0.00;0.00;;;2.80;99.90;;;;;;5064024;28;20504;-86
2024/01/04 04:39:34;;;;;;;0.32;0.32;;;2.80;99.90;;;;;;5090480;28;20527;-87
2024/01/04 04:41:59;;;;;;;0.00;0.00;;;2.80;99.90;;;;;;5083209;28;20075;-86
2024/01/04 04:44:25;;;;;;;0.00;0.00;;;2.80;99.90;;;;;;5061472;28;20044;-86
2024/01/04 04:46:52;;;;;;;0.00;0.00;;;2.90;1.00;;;;;;5089552;28;20041;-86
2024/01/04 04:49:17;;;;;;;0.00;0.00;;;3.00;1.00;;;;;;5090852;28;20123;-86
2024/01/04 04:51:48;;;;;;;0.00;0.00;;;3.10;1.00;;;;;;5092394;28;20118;-86
2024/01/04 04:54:15;;;;;;;0.00;0.00;;;3.20;1.00;;;;;;5090452;28;20071;-86
2024/01/04 04:56:40;;;;;;;0.00;0.00;;;3.20;1.00;;;;;;5092211;28;20485;-86
2024/01/04 04:59:06;;;;;;;0.00;0.00;;;3.30;1.00;;;;;;5064703;28;20097;-86
2024/01/04 05:01:32;;;;;;;1.35;0.57;;;3.30;1.00;;;;;;5093700;28;20052;-86
2024/01/04 05:03:57;;;;;;;0.10;0.10;;;3.40;1.00;;;;;;5086314;28;20483;-87
2024/01/04 05:06:23;;;;;;;0.00;0.00;;;3.40;1.00;;;;;;5093741;28;20035;-86
2024/01/04 05:08:48;;;;;;;0.00;0.00;;;3.40;1.00;;;;;;5067603;28;20066;-86
2024/01/04 05:11:14;;;;;;;0.00;0.00;;;3.40;1.00;;;;;;5097083;28;20044;-86
2024/01/04 05:13:39;;;;;;;0.00;0.00;;;3.30;1.00;;;;;;5098779;28;20070;-86
2024/01/04 05:16:06;;;;;;;0.00;0.00;;;3.40;1.00;;;;;;5093882;28;20040;-86
2024/01/04 05:18:31;;;;;;;0.00;0.00;;;3.30;1.00;;;;;;5088655;28;20051;-86
2024/01/04 05:21:00;;;;;;;0.00;0.00;;;3.80;1.00;;;;;;5085249;28;20079;-86
2024/01/04 05:23:26;;;;;;;0.00;0.00;;;3.10;1.00;;;;;;5065035;28;20128;-87
2024/01/04 05:25:51;;;;;;;0.00;0.00;;;3.10;1.00;;;;;;5053668;28;20147;-86
2024/01/04 05:28:17;;;;;;;0.00;0.00;;;3.10;16.80;;;;;;5068168;28;20044;-86
2024/01/04 05:30:42;;;;;;;0.00;0.00;;;3.20;84.40;;;;;;5073969;28;20471;-87
2024/01/04 05:33:08;;;;;;;0.00;0.00;;;3.20;61.80;;;;;;5101016;28;20051;-86
2024/01/04 05:35:33;;;;;;;0.00;0.00;;;3.10;21.90;;;;;;5102617;28;20036;-86
2024/01/04 05:37:59;;;;;;;0.00;0.00;;;3.10;10.60;;;;;;5099411;28;20118;-86
2024/01/04 05:40:24;;;;;;;0.00;0.00;;;2.90;20.80;;;;;;5068479;28;20094;-87
2024/01/04 05:42:50;;;;;;;0.00;0.00;;;2.80;8.30;;;;;;5073814;28;20052;-86
2024/01/04 05:45:16;;;;;;;0.00;0.00;;;2.70;20.90;;;;;;5061866;28;20097;-87
2024/01/04 05:47:41;;;;;;;0.00;0.00;;;2.70;99.90;;;;;;5068523;28;20066;-86
2024/01/04 05:50:07;;;;;;;0.00;0.00;;;2.70;99.90;;;;;;5069625;28;20528;-86
2024/01/04 05:52:33;;;;;;;0.00;0.00;;;2.70;99.90;;;;;;5081703;28;20044;-86
2024/01/04 05:54:59;;;;;;;0.00;0.00;;;2.70;99.90;;;;;;5092474;28;20079;-86
2024/01/04 05:57:27;;;;;;;0.00;0.00;;;2.70;99.90;;;;;;5091315;28;20171;-87
2024/01/04 05:59:53;;;;;;;0.00;0.00;;;2.70;99.90;;;;;;5095551;28;20478;-86
2024/01/04 06:02:19;;;;;;;0.05;0.05;;;2.60;99.90;;;;;;5077565;28;20416;-86
2024/01/04 06:04:44;;;;;;;0.00;0.00;;;2.70;99.90;;;;;;5066482;28;20060;-86
2024/01/04 06:07:10;;;;;;;3.10;0.65;;;2.60;99.90;;;;;;5088022;28;20084;-86
2024/01/04 06:09:36;;;;;;;0.00;0.00;;;2.70;99.90;;;;;;5088515;28;20441;-86
2024/01/04 06:12:01;;;;;;;0.00;0.00;;;2.70;99.90;;;;;;5087704;28;20040;-86
2024/01/04 06:14:30;;;;;;;0.25;0.22;;;2.60;99.90;;;;;;5098792;28;20127;-86
2024/01/04 06:16:57;;;;;;;0.00;0.00;;;2.60;99.90;;;;;;5092195;28;20044;-86
2024/01/04 06:19:23;;;;;;;0.00;0.00;;;2.60;99.90;;;;;;5087386;28;20093;-86
2024/01/04 06:21:48;;;;;;;0.00;0.00;;;2.60;99.90;;;;;;5090358;28;20048;-86
2024/01/04 06:24:14;;;;;;;0.08;0.05;;;2.50;99.90;;;;;;5093390;28;20486;-86
2024/01/04 06:26:39;;;;;;;0.00;0.00;;;2.40;99.90;;;;;;5080601;28;20122;-86
2024/01/04 06:29:05;;;;;;;0.00;0.00;;;2.30;99.90;;;;;;5091788;28;20048;-86
2024/01/04 06:31:31;;;;;;;0.00;0.00;;;2.20;99.90;;;;;;5091832;28;20490;-86
2024/01/04 06:33:56;;;;;;;0.00;0.00;;;2.00;99.90;;;;;;5083039;28;20054;-86
2024/01/04 06:36:23;;;;;;;0.00;0.00;;;1.90;99.90;;;;;;5100519;28;20044;-86
2024/01/04 06:38:50;;;;;;;0.00;0.00;;;1.90;99.90;;;;;;5065108;28;20091;-87
2024/01/04 06:41:17;;;;;;;0.00;0.00;;;1.80;99.90;;;;;;5091433;28;20071;-86
2024/01/04 06:43:42;;;;;;;0.00;0.00;;;1.70;99.90;;;;;;5059342;28;20043;-86
2024/01/04 06:46:08;;;;;;;0.00;0.00;;;1.60;99.90;;;;;;5062038;28;20414;-87
2024/01/04 06:48:33;;;;;;;0.00;0.00;;;1.50;99.90;;;;;;5091589;28;20048;-86
2024/01/04 06:50:59;;;;;;;0.00;0.00;;;1.50;99.90;;;;;;5091494;28;20509;-86
2024/01/04 06:53:25;;;;;;;0.00;0.00;;;1.50;99.90;;;;;;5082955;28;20052;-86
2024/01/04 06:55:51;;;;;;;0.00;0.00;;;1.50;99.90;;;;;;5098086;28;20135;-86
2024/01/04 06:58:17;;;;;;;0.00;0.00;;;1.40;1.00;;;;;;5085475;28;20155;-86
2024/01/04 07:00:42;;;;;;;0.00;0.00;;;1.40;1.00;;;;;;5091603;28;20059;-87
2024/01/04 07:03:08;;;;;;;0.00;0.00;;;1.40;1.00;;;;;;5069307;28;20057;-86
2024/01/04 07:05:33;;;;;;;0.00;0.00;;;1.30;1.00;;;;;;5088477;28;20523;-85
2024/01/04 07:07:59;;;;;;;0.00;0.00;;;1.30;1.00;;;;;;5066101;28;20047;-85
2024/01/04 07:10:26;;;;;;;0.00;0.00;;;1.20;1.00;;;;;;5093241;28;20047;-86
2024/01/04 07:12:51;;;;;;;0.00;0.00;;;1.10;1.00;;;;;;5091876;28;20047;-86
2024/01/04 07:15:17;;;;;;;0.00;0.00;;;2.00;1.00;;;;;;5044599;28;20581;-86
2024/01/04 07:17:42;;;;;;;0.08;0.08;;;1.10;1.00;;;;;;5088745;28;20043;-86
2024/01/04 07:20:09;;;;;;;0.00;0.00;;;1.10;1.00;;;;;;5090814;28;20132;-86
2024/01/04 07:22:35;;;;;;;8.48;0.77;;;1.10;1.00;;;;;;5093815;28;20119;-86
2024/01/04 07:25:01;;;;;;;0.55;0.55;;;1.10;1.00;;;;;;5089390;28;20437;-86
2024/01/04 07:27:27;;;;;;;0.08;0.08;;;1.00;99.90;;;;;;5088697;28;20039;-86
2024/01/04 07:29:54;;;;;;;0.00;0.00;;;0.90;99.90;;;;;;5062082;28;20044;-86
2024/01/04 07:32:20;;;;;;;0.05;0.05;;;0.80;99.90;;;;;;5060257;28;20040;-86
2024/01/04 07:34:46;;;;;;;0.13;0.13;;;0.90;99.90;;;;;;5085667;28;20389;-86
2024/01/04 07:37:12;;;;;;;0.00;0.00;;;0.90;1.00;;;;;;5062491;28;20060;-86
2024/01/04 07:39:39;;;;;;;0.00;0.00;;;0.90;1.00;;;;;;5056786;28;20061;-86
2024/01/04 07:42:05;;;;;;;0.00;0.00;;;1.00;99.90;;;;;;5070273;28;20055;-86
2024/01/04 07:44:31;;;;;;;0.00;0.00;;;1.00;99.90;;;;;;5075316;28;20363;-86
2024/01/04 07:46:57;;;;;;;0.00;0.00;;;1.10;99.90;;;;;;5081882;28;20501;-86
2024/01/04 07:49:24;;;;;;;0.00;0.00;;;1.10;99.90;;;;;;5061381;28;20043;-86
2024/01/04 07:51:51;;;;;;;0.10;0.10;;;1.10;99.90;;;;;;5061759;28;20056;-86
2024/01/04 07:54:17;;;;;;;0.00;0.00;;;1.00;99.90;;;;;;5087844;28;20544;-86
2024/01/04 07:56:42;;;;;;;2.95;1.40;;;1.00;99.90;;;;;;5080710;28;20123;-86
2024/01/04 07:59:08;;;;;;;0.00;0.00;;;1.50;99.90;;;;;;5067089;28;20173;-86
2024/01/04 08:01:34;;;;;;;0.00;0.00;;;0.80;99.90;;;;;;5086167;28;20094;-86
2024/01/04 08:04:00;;;;;;;0.00;0.00;;;0.70;99.90;;;;;;5087070;28;20052;-86
2024/01/04 08:06:26;;;;;;;0.00;0.00;;;0.70;99.90;;;;;;5078563;28;20044;-86
2024/01/04 08:08:52;;;;;;;0.00;0.00;;;0.70;99.90;;;;;;5088517;28;20050;-86
2024/01/04 08:11:18;;;;;;;0.00;0.00;;;0.60;99.90;;;;;;5087631;28;20413;-86
2024/01/04 08:13:45;;;;;;;1.55;1.45;;;0.50;99.90;;;;;;5096765;28;20310;-86
2024/01/04 08:16:11;;;;;;;0.20;0.20;;;0.50;99.90;;;;;;5088794;28;20047;-86
2024/01/04 08:18:37;;;;;;;0.00;0.00;;;0.50;99.90;;;;;;5062122;28;20048;-87
2024/01/04 08:21:03;;;;;;;0.00;0.00;;;0.50;99.90;;;;;;5089312;28;20524;-86
2024/01/04 08:23:30;;;;;;;0.00;0.00;;;0.50;99.90;;;;;;5091560;28;20142;-86
2024/01/04 08:25:56;;;;;;;0.00;0.00;;;0.50;99.90;;;;;;5074120;28;20087;-86
2024/01/04 08:28:22;;;;;;;0.00;0.00;;;0.40;99.90;;;;;;5099096;28;20044;-86
2024/01/04 08:30:48;;;;;;;0.10;0.10;;;0.40;99.90;;;;;;5067641;28;20044;-86
2024/01/04 08:33:13;;;;;;;0.00;0.00;;;0.40;99.90;;;;;;5081334;28;20048;-86
2024/01/04 08:35:42;;;;;;;0.00;0.00;;;0.40;99.90;;;;;;5092120;28;20052;-86
2024/01/04 08:38:08;;;;;;;0.00;0.00;;;0.30;99.90;;;;;;5091637;28;20540;-86
2024/01/04 08:40:36;;;;;;;0.40;0.30;;;0.40;99.90;;;;;;5075097;28;20478;-86
2024/01/04 08:43:03;;;;;;;0.00;0.00;;;0.40;99.90;;;;;;5098656;28;20047;-86
2024/01/04 08:45:28;;;;;;;0.00;0.00;;;0.50;99.90;;;;;;5094432;28;20120;-86
2024/01/04 08:47:54;;;;;;;0.00;0.00;;;0.60;99.90;;;;;;5088956;28;20101;-86
2024/01/04 08:50:20;;;;;;;0.00;0.00;;;0.70;1.00;;;;;;5070520;28;20048;-87
2024/01/04 08:52:46;;;;;;;0.00;0.00;;;0.80;1.00;;;;;;5094516;28;20169;-86
2024/01/04 08:55:12;;;;;;;0.00;0.00;;;1.70;1.00;;;;;;5090128;28;20127;-86
2024/01/04 08:57:37;;;;;;;0.10;0.10;;;0.90;1.00;;;;;;5092287;28;21004;-86
2024/01/04 09:00:04;;;;;;;0.00;0.00;;;1.00;1.00;;;;;;5087313;28;20054;-86
2024/01/04 09:02:30;;;;;;;0.55;0.55;;;1.10;1.00;;;;;;5094985;28;20435;-87
2024/01/04 09:04:56;;;;;;;0.00;0.00;;;1.00;1.00;;;;;;5093230;28;20079;-86
2024/01/04 09:07:21;;;;;;;0.00;0.00;;;1.10;1.00;;;;;;5091879;28;20947;-87
2024/01/04 09:09:47;;;;;;;0.00;0.00;;;1.20;1.00;;;;;;5091801;28;20040;-86
2024/01/04 09:12:14;;;;;;;0.00;0.00;;;1.20;1.00;;;;;;5095281;28;20043;-86
2024/01/04 09:14:40;;;;;;;0.00;0.00;;;1.30;4.10;;;;;;5095436;28;20051;-86
2024/01/04 09:17:05;;;;;;;0.08;0.08;;;1.40;23.60;;;;;;5067973;28;20098;-87
2024/01/04 09:19:32;;;;;;;0.20;0.20;;;1.60;54.80;;;;;;5078221;28;20052;-87
2024/01/04 09:21:58;;;;;;;0.00;0.00;;;1.70;87.10;;;;;;5048621;28;20365;-86
2024/01/04 09:24:23;;;;;;;0.22;0.22;;;1.90;99.90;;;;;;5064904;28;20048;-86
2024/01/04 09:26:50;;;;;;;0.00;0.00;;;2.10;99.90;;;;;;5083277;28;20051;-86
2024/01/04 09:29:17;;;;;;;0.00;0.00;;;2.20;99.90;;;;;;5092718;28;20074;-86
2024/01/04 09:31:43;;;;;;;0.00;0.00;;;2.30;99.90;;;;;;5103453;28;20051;-86
2024/01/04 09:34:09;;;;;;;0.00;0.00;;;2.40;99.90;;;;;;5095200;28;20047;-86
2024/01/04 09:36:35;;;;;;;0.00;0.00;;;2.60;99.90;;;;;;5094527;28;20047;-87
2024/01/04 09:39:03;;;;;;;0.00;0.00;;;2.70;99.90;;;;;;5096955;28;20090;-86
2024/01/04 09:41:33;;;;;;;1.25;0.98;;;2.80;99.90;;;;;;5099339;28;20055;-86
2024/01/04 09:44:00;;;;;;;0.00;0.00;;;2.90;99.90;;;;;;5082319;28;20051;-86
2024/01/04 09:46:35;;;;;;;0.00;0.00;;;2.90;99.90;;;;;;5064201;28;20128;-86
2024/01/04 09:49:01;;;;;;;0.00;0.00;;;2.90;99.90;;;;;;5097451;28;20105;-86
2024/01/04 09:51:29;;;;;;;0.00;0.00;;;2.80;99.90;;;;;;5077637;28;20549;-86
2024/01/04 09:53:55;;;;;;;0.60;0.60;;;2.60;99.90;;;;;;5088420;28;20039;-86
2024/01/04 09:56:26;;;;;;;0.00;0.00;;;2.50;99.90;;;;;;5088841;28;20048;-86
2024/01/04 09:58:53;;;;;;;0.00;0.00;;;2.30;99.90;;;;;;5068098;28;20493;-86
2024/01/04 10:01:24;;;;;;;0.00;0.00;;;2.30;99.90;;;;;;5095338;28;20124;-86
2024/01/04 10:03:53;;;;;;;0.00;0.00;;;2.30;99.90;;;;;;5095690;28;20047;-86
2024/01/04 10:06:28;;;;;;;0.00;0.00;;;2.20;99.90;;;;;;5095309;28;20063;-86
2024/01/04 10:09:10;;;;;;;0.00;0.00;;;2.30;99.90;;;;;;5094090;28;20051;-86
2024/01/04 10:11:57;;;;;;;0.00;0.00;;;2.20;99.90;;;;;;5090440;28;20090;-85
2024/01/04 10:14:23;;;;;;;0.15;0.15;;;2.20;99.90;;;;;;5072983;28;20044;-86
2024/01/04 10:16:49;;;;;;;0.00;0.00;;;2.10;99.90;;;;;;5097488;28;20048;-86
2024/01/04 10:19:15;;;;;;;0.10;0.10;;;2.20;99.90;;;;;;5095102;28;20055;-86
2024/01/04 10:21:41;;;;;;;0.00;0.00;;;2.10;99.90;;;;;;5095160;28;20047;-86
2024/01/04 10:24:07;;;;;;;0.00;0.00;;;2.10;99.90;;;;;;5094826;28;20119;-86
2024/01/04 10:26:33;;;;;;;0.00;0.00;;;2.90;99.90;;;;;;5094859;28;20063;-86
2024/01/04 10:29:00;;;;;;;0.00;0.00;;;2.20;99.90;;;;;;5094835;28;20040;-86
2024/01/04 10:31:26;;;;;;;0.00;0.00;;;2.20;99.90;;;;;;5094623;28;20055;-86
2024/01/04 10:33:59;;;;;;;0.00;0.00;;;2.30;99.90;;;;;;5094753;28;20450;-86
2024/01/04 10:36:28;;;;;;;0.00;0.00;;;2.30;99.90;;;;;;5092479;28;20576;-86
2024/01/04 10:38:58;;;;;;;0.00;0.00;;;2.40;99.90;;;;;;5064576;28;20044;-86
2024/01/04 10:41:27;;;;;;;0.00;0.00;;;2.60;99.90;;;;;;5092404;28;20052;-86
2024/01/04 10:44:06;;;;;;;0.00;0.00;;;2.70;99.90;;;;;;5098359;28;20058;-86
2024/01/04 10:46:35;;;;;;;0.10;0.10;;;2.90;99.90;;;;;;5092415;28;20517;-86
2024/01/04 10:49:02;;;;;;;0.00;0.00;;;3.00;99.90;;;;;;5071161;28;20048;-86
2024/01/04 10:51:32;;;;;;;2.83;0.65;;;3.20;99.90;;;;;;5099591;28;20055;-86
2024/01/04 10:54:02;;;;;;;0.00;0.00;;;3.30;1.00;;;;;;5099330;28;20044;-86
2024/01/04 10:56:35;;;;;;;0.00;0.00;;;3.50;99.90;;;;;;5090001;28;20489;-86
2024/01/04 10:59:02;;;;;;;0.00;0.00;;;3.60;1.00;;;;;;5090942;28;20056;-87
2024/01/04 11:01:28;;;;;;;0.03;0.03;;;3.70;1.00;;;;;;5090729;28;20040;-87
2024/01/04 11:03:55;;;;;;;0.00;0.00;;;3.80;99.90;;;;;;5091248;28;20488;-86
2024/01/04 11:06:23;;;;;;;0.00;0.00;;;3.90;97.40;;;;;;5082343;28;20080;-86
2024/01/04 11:08:50;;;;;;;0.00;0.00;;;4.10;99.90;;;;;;5099576;28;20055;-86
2024/01/04 11:11:18;;;;;;;0.00;0.00;;;4.20;99.90;;;;;;5095012;28;20394;-86
2024/01/04 11:13:44;;;;;;;0.00;0.00;;;4.30;99.90;;;;;;5095583;28;20435;-87
2024/01/04 11:16:39;;;;;;;0.00;0.00;;;4.40;93.10;;;;;;5066542;28;20048;-86
2024/01/04 11:19:40;;;;;;;0.00;0.00;;;4.60;1.00;;;;;;5029926;28;20057;-86
2024/01/04 11:22:27;;;;;;;0.00;0.00;;;4.70;99.90;;;;;;5064924;28;20052;-86
2024/01/04 11:25:10;;;;;;;0.00;0.00;;;4.80;99.90;;;;;;5086610;28;20087;-86
2024/01/04 11:27:36;;;;;;;0.00;0.00;;;5.00;68.30;;;;;;5071218;28;20044;-86
2024/01/04 11:30:03;;;;;;;0.00;0.00;;;5.00;55.10;;;;;;5084515;28;20043;-87
2024/01/04 11:32:31;;;;;;;0.00;0.00;;;4.90;1.00;;;;;;5094144;28;20048;-86
2024/01/04 11:34:57;;;;;;;0.00;0.00;;;4.70;1.00;;;;;;5087560;28;20048;-87
2024/01/04 11:37:24;;;;;;;0.00;0.00;;;4.60;82.70;;;;;;5090713;28;20069;-86
2024/01/04 11:39:56;;;;;;;0.00;0.00;;;4.50;99.90;;;;;;5095468;28;20131;-87
2024/01/04 11:42:37;;;;;;;0.00;0.00;;;4.60;78.30;;;;;;5084774;28;20052;-86
2024/01/04 11:45:04;;;;;;;0.20;0.20;;;4.80;99.90;;;;;;5090352;28;21062;-86
2024/01/04 11:47:38;;;;;;;0.00;0.00;;;5.00;42.30;;;;;;5090473;28;20048;-86
2024/01/04 11:50:14;;;;;;;0.00;0.00;;;5.20;9.90;;;;;;5063760;28;20084;-86
2024/01/04 11:52:40;;;;;;;1.85;0.43;;;5.30;99.90;;;;;;5093572;28;20051;-86
2024/01/04 11:55:06;;;;;;;0.00;0.00;;;5.30;1.00;;;;;;5088694;28;20052;-87
2024/01/04 11:57:32;;;;;;;0.00;0.00;;;5.40;1.00;;;;;;5089662;28;20091;-86
2024/01/04 11:59:57;;;;;;;0.00;0.00;;;5.40;1.00;;;;;;5065310;28;20047;-86
2024/01/04 12:02:24;;;;;;;0.00;0.00;;;5.40;99.90;;;;;;5093620;28;20078;-86
2024/01/04 12:04:49;;;;;;;2.17;0.63;;;5.40;1.00;;;;;;5061484;28;20052;-86
2024/01/04 12:07:16;;;;;;;0.00;0.00;;;5.40;99.90;;;;;;5085604;28;20044;-86
2024/01/04 12:09:42;;;;;;;0.00;0.00;;;5.40;99.90;;;;;;5072183;28;20039;-86
2024/01/04 12:12:08;;;;;;;0.13;0.13;;;5.40;99.90;;;;;;5095263;28;20105;-86
2024/01/04 12:14:35;;;;;;;0.00;0.00;;;5.50;99.90;;;;;;5068439;28;20052;-86
2024/01/04 12:17:01;;;;;;;0.32;0.22;;;5.50;99.90;;;;;;5104976;28;20074;-86
2024/01/04 12:19:27;;;;;;;0.00;0.00;;;5.40;1.00;;;;;;5075203;28;20067;-86
2024/01/04 12:21:53;;;;;;;0.15;0.15;;;5.40;1.00;;;;;;5068251;28;20055;-86
2024/01/04 12:24:19;;;;;;;0.32;0.32;;;5.30;1.00;;;;;;5096181;28;20439;-86
2024/01/04 12:26:45;;;;;;;0.00;0.00;;;5.20;1.00;;;;;;5103395;28;20054;-86
2024/01/04 12:29:11;;;;;;;0.00;0.00;;;5.00;99.90;;;;;;5072830;28;20066;-86
2024/01/04 12:31:38;;;;;;;0.13;0.10;;;4.90;1.00;;;;;;5104115;28;20123;-86
2024/01/04 12:34:07;;;;;;;0.00;0.00;;;4.70;99.90;;;;;;5104535;28;20071;-86
2024/01/04 12:36:33;;;;;;;5.28;0.25;;;4.70;1.00;;;;;;5096670;28;20048;-86
2024/01/04 12:39:17;;;;;;;0.00;0.00;;;4.60;53.70;;;;;;5095741;28;20097;-86
2024/01/04 12:41:48;;;;;;;3.42;1.27;;;4.60;76.00;;;;;;5089809;28;20050;-86
2024/01/04 12:44:14;;;;;;;0.00;0.00;;;4.50;57.80;;;;;;5082286;28;20149;-86
2024/01/04 12:46:40;;;;;;;0.70;0.38;;;4.40;93.60;;;;;;5069269;28;20089;-86
2024/01/04 12:49:12;;;;;;;0.00;0.00;;;4.40;99.90;;;;;;5093839;28;20043;-86
2024/01/04 12:51:40;;;;;;;0.00;0.00;;;4.30;99.90;;;;;;5097826;28;20077;-86
2024/01/04 12:54:07;;;;;;;1.45;0.38;;;4.30;99.90;;;;;;5101506;28;20089;-86
2024/01/04 12:56:36;;;;;;;1.80;0.95;;;4.30;90.00;;;;;;5091597;28;20374;-86
2024/01/04 12:59:04;;;;;;;0.00;0.00;;;4.30;99.90;;;;;;5099777;28;20088;-86